LDPL Airport Information

Runway Information
Runway 09 Length 9678 ft width 148 ft
Elevation 169 ft Threshold 0 ft Heading 88
Runway 27 Length 9678 ft Width 148 ft
Elevation 274 ft Threshold 0 ft Heading 268
Airport Frequencies
Type APP Name APP Frequency 118.4 MHZ
Type TWR Name TWR Frequency 120 MHZ
Airport Navaids
Type NDB Name Cres Frequency 433 KHZ
Type NDB Name Kavran Frequency 265 KHZ
Type NDB Name Pula Frequency 352 KHZ
Type VOR-DME Name Pula Frequency 111250 KHZ
Airport Weather Information & NOTAM
ADDS - METARS form results

(0715 UTC 17 October 2018)
Data provider http://aviationweather.gov/metar/data/
 
METAR text: LDPL 170700Z 02004KT CAVOK 18/13 Q1019 NOSIG
Conditions at: LDPL (PULA , HR) observed 0700 UTC 17 October 2018
Temperature: 18.0°C (64°F)
Dewpoint: 13.0°C (55°F) [RH = 73%]
Pressure (altimeter): 30.09 inches Hg (1019.0 mb)
Winds: from the NNE (20 degrees) at 5 MPH (4 knots; 2.1 m/s)
Visibility: 6 or more miles (10+ km)
Ceiling: ceiling and visibility are OK
Clouds: unknown
Weather: no significant weather observed at this time

METAR text: LDPL 170630Z VRB02KT CAVOK 17/12 Q1019 NOSIG
Conditions at: LDPL (PULA , HR) observed 0630 UTC 17 October 2018
Temperature: 17.0°C (63°F)
Dewpoint: 12.0°C (54°F) [RH = 72%]
Pressure (altimeter): 30.09 inches Hg (1019.0 mb)
Winds: variable direction winds at 2 MPH (2 knots; 1.0 m/s)
Visibility: 6 or more miles (10+ km)
Ceiling: ceiling and visibility are OK
Clouds: unknown
Weather: no significant weather observed at this time

Forecast for: LDPL (PULA , HR)
Text: TAF LDPL 170525Z 1706/1806 VRB02KT CAVOK TX20/1713Z TN15/1805Z
Forecast period: 0600 UTC 17 October 2018 to 0600 UTC 18 October 2018
Forecast type: FROM: standard forecast or significant change
Winds: variable direction winds at 2 MPH (2 knots; 1.0 m/s)
Visibility: 6 or more miles 10+ km)
Ceiling: unknown
Clouds: missing
Weather: no significant weather forecast for this period